Offerle, Kansas
Current Conditions -  °F | °C
As of 9:52 AM on Sunday 21 Dec 2014 (Local Time) from KDDC Reporting Station
Haze Haze  
Wind Chill: 33°   Ceiling: 1300
Heat Index: 40°   Visibility: 4mi
Dew Point: 38°   Wind: 13mph
Humidity: 93%   Direction: 170°S
Pressure: 29.82"   Gusts: NA
Location:  37.89°N, 99.56°W
Report Text: KDDC 211552Z AUTO 17011KT 4SM BR FEW006 OVC013 04/03 A2982 RMK AO2 SLP106 T00440033
Loading
Personal Weather Stations






























Interactive Weather Map New forecast layout! Learn more

10-Day Weather Forecast

Advertisements
Track Severe Weather on mobile